Time;durP1;ratioP1;P1;durP2;ratioP2;P2;SDS_P1;SDS_P2;PMS_P1;PMS_P2;Temp;Humidity;BMP_temperature;BMP_pressure;BME280_temperature;BME280_humidity;BME280_pressure;Samples;Min_cycle;Max_cycle;Signal;HPM_P1;HPM_P2
2021/04/28 00:01:20;;;;;;;;;;;;;;;7.05;78.89;101541.38;1778879;80;20220;-77
2021/04/28 00:03:48;;;;;;;;;;;;;;;7.03;78.67;101545.73;1778712;80;20493;-77
2021/04/28 00:06:16;;;;;;;;;;;;;;;7.02;79.01;101544.08;1778762;80;21255;-76
2021/04/28 00:08:44;;;;;;;;;;;;;;;7.03;79.10;101548.31;1785076;79;20614;-74
2021/04/28 00:11:13;;;;;;;;;;;;;;;7.04;79.03;101552.14;1793481;80;20246;-75
2021/04/28 00:13:40;;;;;;;;;;;;;;;7.05;78.99;101555.09;1793697;80;20700;-76
2021/04/28 00:16:08;;;;;;;;;;;;;;;7.06;79.05;101562.39;1793749;80;20578;-75
2021/04/28 00:18:36;;;;;;;;;;;;;;;7.05;78.79;101551.70;1793573;80;21139;-75
2021/04/28 00:21:04;;;;;;;;;;;;;;;7.03;79.04;101553.03;1793450;80;20226;-74
2021/04/28 00:23:32;;;;;;;;;;;;;;;7.03;79.02;101559.93;1793733;80;20583;-75
2021/04/28 00:26:00;;;;;;;;;;;;;;;7.00;79.42;101554.44;1793639;80;20285;-75
2021/04/28 00:28:28;;;;;;;;;;;;;;;7.01;79.64;101557.42;1793606;80;20171;-75
2021/04/28 00:30:56;;;;;;;;;;;;;;;7.01;79.49;101549.68;1793669;80;22113;-75
2021/04/28 00:33:24;;;;;;;;;;;;;;;7.02;79.54;101545.36;1793572;80;20127;-75
2021/04/28 00:35:53;;;;;;;;;;;;;;;7.01;79.53;101558.71;1793636;80;20217;-75
2021/04/28 00:38:21;;;;;;;;;;;;;;;7.02;79.64;101569.88;1793712;80;20576;-74
2021/04/28 00:40:50;;;;;;;;;;;;;;;6.99;79.64;101570.81;1793532;80;20218;-75
2021/04/28 00:43:18;;;;;;;;;;;;;;;6.97;79.85;101562.74;1793558;80;21269;-75
2021/04/28 00:45:46;;;;;;;;;;;;;;;6.95;79.96;101563.26;1793436;80;20277;-74
2021/04/28 00:48:14;;;;;;;;;;;;;;;6.93;80.13;101569.75;1793707;80;20492;-75
2021/04/28 00:50:45;;;;;;;;;;;;;;;6.91;80.16;101571.55;1793659;80;20253;-74
2021/04/28 00:53:15;;;;;;;;;;;;;;;6.88;80.39;101577.67;1793552;80;20222;-74
2021/04/28 00:55:43;;;;;;;;;;;;;;;6.88;80.55;101584.56;1793450;79;21263;-74
2021/04/28 00:58:11;;;;;;;;;;;;;;;6.88;80.71;101586.70;1793440;80;20223;-74
2021/04/28 01:00:40;;;;;;;;;;;;;;;6.89;80.85;101577.23;1793479;80;20233;-74
2021/04/28 01:03:10;;;;;;;;;;;;;;;6.88;80.90;101575.09;1793670;80;20237;-75
2021/04/28 01:05:38;;;;;;;;;;;;;;;6.87;80.89;101571.27;1793884;80;20504;-74
2021/04/28 01:08:06;;;;;;;;;;;;;;;6.86;81.05;101562.67;1793557;79;22383;-74
2021/04/28 01:10:36;;;;;;;;;;;;;;;6.85;81.16;101570.48;1793472;80;20254;-75
2021/04/28 01:13:05;;;;;;;;;;;;;;;6.81;81.19;101580.07;1793684;80;20543;-75
2021/04/28 01:15:35;;;;;;;;;;;;;;;6.79;81.26;101575.87;1793361;80;20194;-75
2021/04/28 01:18:16;;;;;;;;;;;;;;;6.80;81.41;101575.80;1793535;80;20281;-75
2021/04/28 01:20:44;;;;;;;;;;;;;;;6.83;81.48;101573.55;1793710;80;22134;-75
2021/04/28 01:23:13;;;;;;;;;;;;;;;6.82;81.47;101562.42;1793490;80;20182;-75
2021/04/28 01:25:43;;;;;;;;;;;;;;;6.81;81.44;101560.72;1793613;80;20286;-74
2021/04/28 01:28:17;;;;;;;;;;;;;;;6.81;81.41;101558.59;1793644;80;20488;-75
2021/04/28 01:30:48;;;;;;;;;;;;;;;6.81;81.45;101560.72;1764717;80;20264;-75
2021/04/28 01:33:26;;;;;;;;;;;;;;;6.80;81.56;101555.16;1760097;81;21425;-75
2021/04/28 01:35:55;;;;;;;;;;;;;;;6.83;81.72;101543.89;1802090;79;20113;-74
2021/04/28 01:38:25;;;;;;;;;;;;;;;6.83;81.46;101542.59;1802561;79;20485;-75
2021/04/28 01:40:53;;;;;;;;;;;;;;;6.83;81.47;101547.75;1802692;79;20280;-75
2021/04/28 01:43:24;;;;;;;;;;;;;;;6.81;81.42;101550.84;1793827;80;20218;-75
2021/04/28 01:45:54;;;;;;;;;;;;;;;6.81;81.58;101557.30;1793655;80;21814;-76
2021/04/28 01:48:22;;;;;;;;;;;;;;;6.81;81.76;101556.01;1793514;80;20245;-75
2021/04/28 01:50:51;;;;;;;;;;;;;;;6.82;81.83;101560.28;1764911;80;20500;-76
2021/04/28 01:53:22;;;;;;;;;;;;;;;6.84;81.84;101565.77;1793782;80;20218;-75
2021/04/28 01:55:53;;;;;;;;;;;;;;;6.87;81.81;101575.98;1793535;80;20254;-75
2021/04/28 01:58:43;;;;;;;;;;;;;;;6.91;81.87;101572.84;1793711;80;21336;-76
2021/04/28 02:01:29;;;;;;;;;;;;;;;6.95;81.83;101578.73;1793542;80;20269;-75
2021/04/28 02:04:00;;;;;;;;;;;;;;;6.97;81.65;101570.04;1793873;80;20131;-75
2021/04/28 02:06:28;;;;;;;;;;;;;;;6.98;81.47;101562.70;1793745;80;20210;-76
2021/04/28 02:08:57;;;;;;;;;;;;;;;6.97;81.24;101558.87;1793766;80;20250;-75
2021/04/28 02:11:26;;;;;;;;;;;;;;;6.97;81.24;101563.59;1741098;80;21195;-75
2021/04/28 02:13:55;;;;;;;;;;;;;;;6.95;81.36;101562.81;1793355;80;20246;-76
2021/04/28 02:16:41;;;;;;;;;;;;;;;6.94;81.35;101561.12;1793573;80;20290;-76
2021/04/28 02:19:10;;;;;;;;;;;;;;;6.96;81.45;101563.62;1793824;80;20501;-75
2021/04/28 02:21:42;;;;;;;;;;;;;;;6.96;81.58;101566.20;1793681;80;20302;-76
2021/04/28 02:24:18;;;;;;;;;;;;;;;6.93;81.75;101567.17;1792575;80;21267;-76
2021/04/28 02:26:48;;;;;;;;;;;;;;;6.92;81.86;101565.51;1793759;80;20647;-75
2021/04/28 02:29:17;;;;;;;;;;;;;;;6.91;82.02;101560.79;1793553;80;20218;-75
2021/04/28 02:31:45;;;;;;;;;;;;;;;6.90;82.15;101558.25;1793854;80;20689;-75
2021/04/28 02:34:17;;;;;;;;;;;;;;;6.90;82.31;101563.41;1793615;80;20225;-75
2021/04/28 02:36:48;;;;;;;;;;;;;;;6.90;82.82;101569.86;1788612;80;21654;-75
2021/04/28 02:39:42;;;;;;;;;;;;;;;6.86;83.37;101572.19;1736042;82;20258;-75
2021/04/28 02:42:10;;;;;;;;;;;;;;;6.82;84.04;101575.77;1736121;82;20243;-76
2021/04/28 02:44:40;;;;;;;;;;;;;;;6.80;84.71;101583.98;1759763;80;20297;-75
2021/04/28 02:47:10;;;;;;;;;;;;;;;6.77;84.68;101582.36;1793959;80;20313;-76
2021/04/28 02:49:40;;;;;;;;;;;;;;;6.72;85.29;101575.25;1793381;80;21210;-75
2021/04/28 02:52:16;;;;;;;;;;;;;;;6.70;85.69;101571.05;1790680;80;20527;-75
2021/04/28 02:54:49;;;;;;;;;;;;;;;6.68;86.03;101574.11;1793797;80;20135;-75
2021/04/28 02:57:20;;;;;;;;;;;;;;;6.67;85.90;101571.97;1793738;80;20321;-76
2021/04/28 02:59:49;;;;;;;;;;;;;;;6.64;86.12;101569.50;1765132;80;20230;-76
2021/04/28 03:02:18;;;;;;;;;;;;;;;6.64;86.31;101565.63;1793690;80;21244;-76
2021/04/28 03:04:50;;;;;;;;;;;;;;;6.63;86.25;101563.13;1793656;80;20131;-75
2021/04/28 03:07:21;;;;;;;;;;;;;;;6.62;86.95;101571.30;1765979;80;20151;-75
2021/04/28 03:09:49;;;;;;;;;;;;;;;6.60;87.28;101573.11;1793642;80;20682;-75
2021/04/28 03:12:18;;;;;;;;;;;;;;;6.55;87.61;101577.56;1793812;80;20500;-76
2021/04/28 03:14:53;;;;;;;;;;;;;;;6.53;87.85;101583.23;1793704;80;22672;-76
2021/04/28 03:17:22;;;;;;;;;;;;;;;6.50;88.32;101573.03;1793631;80;20230;-76
2021/04/28 03:19:57;;;;;;;;;;;;;;;6.47;88.76;101549.09;1765052;80;20139;-77
2021/04/28 03:22:26;;;;;;;;;;;;;;;6.45;89.26;101552.14;1793743;80;20218;-76
2021/04/28 03:24:59;;;;;;;;;;;;;;;6.41;89.53;101563.04;1793727;80;20221;-76
2021/04/28 03:27:27;;;;;;;;;;;;;;;6.38;89.93;101569.11;1793695;80;22081;-74
2021/04/28 03:29:57;;;;;;;;;;;;;;;6.35;90.03;101577.39;1793505;80;20210;-77
2021/04/28 03:32:25;;;;;;;;;;;;;;;6.30;90.43;101587.03;1793766;80;20147;-74
2021/04/28 03:34:55;;;;;;;;;;;;;;;6.29;90.77;101592.63;1791934;80;20234;-77
2021/04/28 03:37:23;;;;;;;;;;;;;;;6.30;90.89;101589.17;1793604;80;20226;-77
2021/04/28 03:39:52;;;;;;;;;;;;;;;6.34;91.43;101595.07;1793567;80;21208;-77
2021/04/28 03:42:22;;;;;;;;;;;;;;;6.35;91.51;101595.00;1793409;80;20681;-77
2021/04/28 03:44:52;;;;;;;;;;;;;;;6.35;91.74;101606.59;1793955;80;20309;-77
2021/04/28 03:47:20;;;;;;;;;;;;;;;6.36;92.10;101608.73;1794001;80;20191;-77
2021/04/28 03:49:49;;;;;;;;;;;;;;;6.35;92.45;101604.02;1765128;80;20222;-77
2021/04/28 03:52:17;;;;;;;;;;;;;;;6.32;92.62;101602.84;1793677;80;22194;-76
2021/04/28 03:55:05;;;;;;;;;;;;;;;6.26;92.82;101599.17;1793438;80;20501;-74
2021/04/28 03:57:33;;;;;;;;;;;;;;;6.23;93.37;101603.15;1793887;80;20162;-74
2021/04/28 04:00:04;;;;;;;;;;;;;;;6.22;93.97;101607.08;1793701;80;20650;-73
2021/04/28 04:02:34;;;;;;;;;;;;;;;6.21;94.43;101629.87;1791618;80;20250;-74
2021/04/28 04:05:05;;;;;;;;;;;;;;;6.17;94.58;101643.74;1788894;80;21315;-73
2021/04/28 04:07:42;;;;;;;;;;;;;;;6.14;94.95;101647.70;1783873;80;20171;-72
2021/04/28 04:10:13;;;;;;;;;;;;;;;6.12;95.47;101640.04;1789231;79;20243;-72
2021/04/28 04:12:41;;;;;;;;;;;;;;;6.13;95.70;101654.59;1793549;80;20296;-73
2021/04/28 04:15:09;;;;;;;;;;;;;;;6.14;96.17;101652.86;1793474;80;20270;-72
2021/04/28 04:17:38;;;;;;;;;;;;;;;6.15;96.38;101655.41;1793526;80;21706;-73
2021/04/28 04:20:20;;;;;;;;;;;;;;;6.14;96.45;101654.15;1793117;80;20222;-72
2021/04/28 04:22:50;;;;;;;;;;;;;;;6.10;96.60;101650.82;1793057;80;20249;-72
2021/04/28 04:25:22;;;;;;;;;;;;;;;6.07;96.64;101654.79;1789333;80;20218;-73
2021/04/28 04:27:50;;;;;;;;;;;;;;;6.07;97.13;101657.80;1793584;80;20238;-72
2021/04/28 04:30:21;;;;;;;;;;;;;;;6.07;97.16;101652.66;1768513;80;21342;-72
2021/04/28 04:33:08;;;;;;;;;;;;;;;6.06;97.34;101638.92;1793564;80;20270;-72
2021/04/28 04:35:47;;;;;;;;;;;;;;;6.07;97.51;101638.48;1793630;80;20238;-72
2021/04/28 04:38:33;;;;;;;;;;;;;;;6.08;97.80;101638.45;1793419;80;20539;-72
2021/04/28 04:41:03;;;;;;;;;;;;;;;6.09;97.93;101633.70;1791841;80;20218;-72
2021/04/28 04:43:33;;;;;;;;;;;;;;;6.08;97.96;101630.72;1792618;80;21453;-73
2021/04/28 04:46:05;;;;;;;;;;;;;;;6.10;98.41;101629.36;1791027;80;20437;-74
2021/04/28 04:48:34;;;;;;;;;;;;;;;6.09;98.13;101627.26;1793699;80;20150;-72
2021/04/28 04:51:01;;;;;;;;;;;;;;;6.07;98.17;101630.31;1793506;80;20228;-73
2021/04/28 04:53:30;;;;;;;;;;;;;;;6.07;97.97;101624.30;1793543;80;20265;-73
2021/04/28 04:55:59;;;;;;;;;;;;;;;6.09;98.18;101621.25;1793772;80;22097;-73
2021/04/28 04:58:27;;;;;;;;;;;;;;;6.10;98.12;101619.90;1793606;80;20277;-72
2021/04/28 05:00:55;;;;;;;;;;;;;;;6.12;98.14;101612.98;1793728;80;20166;-73
2021/04/28 05:03:22;;;;;;;;;;;;;;;6.17;98.30;101616.23;1793680;80;20222;-75
2021/04/28 05:05:51;;;;;;;;;;;;;;;6.21;98.09;101613.12;1793570;80;20258;-73
2021/04/28 05:08:20;;;;;;;;;;;;;;;6.21;97.50;101613.97;1793894;80;21207;-72
2021/04/28 05:10:48;;;;;;;;;;;;;;;6.25;97.51;101612.13;1793533;79;20699;-73
2021/04/28 05:13:16;;;;;;;;;;;;;;;6.32;97.52;101618.30;1793776;80;20249;-73
2021/04/28 05:15:45;;;;;;;;;;;;;;;6.41;97.58;101621.05;1793562;80;20221;-73
2021/04/28 05:18:14;;;;;;;;;;;;;;;6.44;97.11;101623.52;1793644;80;20584;-74
2021/04/28 05:20:42;;;;;;;;;;;;;;;6.48;97.09;101631.52;1793871;80;22105;-74
2021/04/28 05:23:11;;;;;;;;;;;;;;;6.55;97.10;101648.48;1793772;79;20496;-74
2021/04/28 05:25:46;;;;;;;;;;;;;;;6.58;96.60;101641.92;1783893;80;20234;-74
2021/04/28 05:28:14;;;;;;;;;;;;;;;6.60;96.35;101632.86;1793890;80;20222;-73
2021/04/28 05:30:42;;;;;;;;;;;;;;;6.63;96.33;101637.47;1793920;80;20300;-74
2021/04/28 05:33:10;;;;;;;;;;;;;;;6.67;96.03;101653.69;1793703;80;21789;-73
2021/04/28 05:35:38;;;;;;;;;;;;;;;6.68;95.96;101651.48;1793678;80;20484;-75
2021/04/28 05:38:07;;;;;;;;;;;;;;;6.69;95.66;101642.86;1793791;80;20520;-75
2021/04/28 05:40:35;;;;;;;;;;;;;;;6.69;95.50;101637.26;1793875;80;20561;-74
2021/04/28 05:43:03;;;;;;;;;;;;;;;6.70;95.58;101631.66;1793587;80;20238;-75
2021/04/28 05:45:42;;;;;;;;;;;;;;;6.69;95.58;101645.44;1793747;80;21142;-75
2021/04/28 05:48:04;;;;;;;;;;;;;;;6.70;95.67;101645.38;1792673;80;20202;-72
2021/04/28 05:50:32;;;;;;;;;;;;;;;6.73;95.79;101649.61;1794210;80;20222;-76
2021/04/28 05:53:00;;;;;;;;;;;;;;;6.75;95.78;101649.94;1793764;80;20313;-76
2021/04/28 05:55:28;;;;;;;;;;;;;;;6.76;95.65;101652.93;1793830;79;20496;-75
2021/04/28 05:57:57;;;;;;;;;;;;;;;6.78;95.56;101650.28;1793872;80;21210;-75
2021/04/28 06:00:26;;;;;;;;;;;;;;;6.81;95.65;101646.30;1803157;78;20505;-74
2021/04/28 06:02:54;;;;;;;;;;;;;;;6.83;95.45;101640.63;1822748;78;20148;-77
2021/04/28 06:05:23;;;;;;;;;;;;;;;6.82;95.32;101644.97;1826936;78;20567;-75
2021/04/28 06:07:51;;;;;;;;;;;;;;;6.85;95.60;101643.58;1823063;78;20237;-75
2021/04/28 06:10:22;;;;;;;;;;;;;;;6.92;95.63;101641.15;1802770;78;21180;-77
2021/04/28 06:13:06;;;;;;;;;;;;;;;6.93;95.29;101649.30;1802813;78;20267;-75
2021/04/28 06:15:36;;;;;;;;;;;;;;;6.94;95.09;101657.88;1793920;79;20166;-77
2021/04/28 06:18:07;;;;;;;;;;;;;;;6.96;95.05;101660.39;1795831;78;20217;-77
2021/04/28 06:20:37;;;;;;;;;;;;;;;6.99;95.00;101655.16;1790026;79;20283;-76
2021/04/28 06:23:09;;;;;;;;;;;;;;;7.01;95.03;101663.23;1792037;80;21356;-76
2021/04/28 06:25:39;;;;;;;;;;;;;;;7.02;95.04;101666.18;1786511;80;20174;-76
2021/04/28 06:28:09;;;;;;;;;;;;;;;7.05;94.90;101670.42;1782556;78;20281;-74
2021/04/28 06:30:38;;;;;;;;;;;;;;;7.09;94.96;101672.81;1793744;78;20258;-76
2021/04/28 06:33:09;;;;;;;;;;;;;;;7.10;94.63;101677.09;1811773;78;20305;-75
2021/04/28 06:35:41;;;;;;;;;;;;;;;7.09;94.46;101671.53;1803019;78;20232;-75
2021/04/28 06:38:08;;;;;;;;;;;;;;;7.08;94.41;101674.18;1792154;79;20231;-77
2021/04/28 06:40:42;;;;;;;;;;;;;;;7.08;94.51;101672.45;1801207;78;20132;-76
2021/04/28 06:43:10;;;;;;;;;;;;;;;7.10;94.56;101679.67;1798870;78;20196;-76
2021/04/28 06:45:40;;;;;;;;;;;;;;;7.13;94.48;101687.30;1802935;78;20234;-77
2021/04/28 06:48:08;;;;;;;;;;;;;;;7.15;94.25;101694.53;1786094;78;21356;-77
2021/04/28 06:50:38;;;;;;;;;;;;;;;7.22;94.37;101697.74;1782244;80;20138;-77
2021/04/28 06:53:08;;;;;;;;;;;;;;;7.24;94.00;101707.59;1790079;78;20285;-76
2021/04/28 06:55:40;;;;;;;;;;;;;;;7.27;93.91;101700.58;1798720;78;20287;-78
2021/04/28 06:58:10;;;;;;;;;;;;;;;7.32;93.80;101697.81;1810108;77;20228;-76
2021/04/28 07:00:39;;;;;;;;;;;;;;;7.37;93.68;101699.33;1826668;76;21211;-75
2021/04/28 07:03:07;;;;;;;;;;;;;;;7.43;93.74;101705.55;1810017;78;20327;-75
2021/04/28 07:05:35;;;;;;;;;;;;;;;7.48;93.47;101707.98;1824982;77;20240;-75
2021/04/28 07:08:04;;;;;;;;;;;;;;;7.53;92.92;101711.70;1852303;77;20221;-76
2021/04/28 07:10:33;;;;;;;;;;;;;;;7.56;92.57;101711.59;1827293;77;20204;-75
2021/04/28 07:13:05;;;;;;;;;;;;;;;7.61;92.59;101712.25;1829754;78;21189;-77
2021/04/28 07:15:33;;;;;;;;;;;;;;;7.65;92.29;101713.83;1826786;78;20319;-75
2021/04/28 07:18:03;;;;;;;;;;;;;;;7.71;92.32;101723.48;1809996;79;20231;-76
2021/04/28 07:20:31;;;;;;;;;;;;;;;7.77;92.32;101715.50;1819055;78;20220;-76
2021/04/28 07:22:59;;;;;;;;;;;;;;;7.82;92.00;101725.20;1818500;78;20136;-74
2021/04/28 07:25:27;;;;;;;;;;;;;;;7.87;92.13;101728.92;1817941;78;21204;-75
2021/04/28 07:27:56;;;;;;;;;;;;;;;7.96;92.41;101733.28;1821380;78;20147;-76
2021/04/28 07:30:26;;;;;;;;;;;;;;;8.06;92.32;101731.64;1820824;78;20179;-75
2021/04/28 07:32:55;;;;;;;;;;;;;;;8.13;92.04;101722.30;1816184;78;20128;-75
2021/04/28 07:35:23;;;;;;;;;;;;;;;8.20;91.79;101728.08;1819218;78;20148;-74
2021/04/28 07:37:52;;;;;;;;;;;;;;;8.24;91.66;101730.91;1819509;78;21265;-76
2021/04/28 07:40:22;;;;;;;;;;;;;;;8.27;91.46;101734.67;1826517;78;20576;-78
2021/04/28 07:42:55;;;;;;;;;;;;;;;8.32;91.40;101737.52;1827439;78;20494;-75
2021/04/28 07:45:24;;;;;;;;;;;;;;;8.36;90.89;101729.19;1827630;78;20247;-76
2021/04/28 07:47:52;;;;;;;;;;;;;;;8.45;90.87;101734.84;1827637;78;20140;-76
2021/04/28 07:50:24;;;;;;;;;;;;;;;8.54;90.26;101733.62;1826049;78;22271;-75
2021/04/28 07:52:52;;;;;;;;;;;;;;;8.64;90.01;101737.97;1825542;78;20518;-74
2021/04/28 07:55:21;;;;;;;;;;;;;;;8.73;90.04;101728.53;1827648;78;20144;-74
2021/04/28 07:57:50;;;;;;;;;;;;;;;8.83;89.64;101726.80;1828031;78;20562;-76
2021/04/28 08:00:23;;;;;;;;;;;;;;;8.86;88.67;101724.53;1827827;78;20299;-76
2021/04/28 08:03:00;;;;;;;;;;;;;;;8.87;88.08;101721.86;1827706;78;21167;-74
2021/04/28 08:05:22;;;;;;;;;;;;;;;8.86;87.42;101722.78;1826060;78;20714;-76
2021/04/28 08:07:52;;;;;;;;;;;;;;;8.85;87.26;101719.80;1827540;78;20240;-75
2021/04/28 08:10:19;;;;;;;;;;;;;;;8.94;87.77;101719.41;1827255;78;20208;-73
2021/04/28 08:12:48;;;;;;;;;;;;;;;9.07;87.78;101714.99;1819558;78;20228;-75
2021/04/28 08:15:16;;;;;;;;;;;;;;;9.23;87.73;101719.90;1816926;78;21276;-76
2021/04/28 08:17:45;;;;;;;;;;;;;;;9.32;86.74;101720.79;1824675;78;20535;-74
2021/04/28 08:20:15;;;;;;;;;;;;;;;9.41;85.95;101726.89;1834297;77;20224;-74
2021/04/28 08:22:43;;;;;;;;;;;;;;;9.46;85.06;101737.88;1835602;77;20217;-75
2021/04/28 08:25:13;;;;;;;;;;;;;;;9.48;84.81;101736.05;1846327;77;20225;-73
2021/04/28 08:27:41;;;;;;;;;;;;;;;9.51;84.67;101738.50;1841019;76;21176;-76
2021/04/28 08:30:11;;;;;;;;;;;;;;;9.54;84.34;101734.02;1825487;78;20195;-74
2021/04/28 08:32:39;;;;;;;;;;;;;;;9.52;83.57;101736.30;1826785;78;20212;-76
2021/04/28 08:35:13;;;;;;;;;;;;;;;9.55;83.85;101741.34;1826516;78;20295;-76
2021/04/28 08:37:39;;;;;;;;;;;;;;;9.58;83.62;101743.35;1821403;78;20219;-75
2021/04/28 08:40:07;;;;;;;;;;;;;;;9.57;83.81;101740.84;1824651;78;21350;-75
2021/04/28 08:42:35;;;;;;;;;;;;;;;9.62;83.50;101738.87;1824958;78;20136;-73
2021/04/28 08:45:03;;;;;;;;;;;;;;;9.64;83.42;101735.75;1824843;78;20128;-76
2021/04/28 08:47:31;;;;;;;;;;;;;;;9.72;83.39;101734.13;1819575;78;20156;-74
2021/04/28 08:49:59;;;;;;;;;;;;;;;9.85;83.36;101743.02;1817183;77;20224;-75
2021/04/28 08:52:28;;;;;;;;;;;;;;;9.98;82.90;101742.39;1834721;77;21256;-76
2021/04/28 08:54:57;;;;;;;;;;;;;;;10.08;82.37;101744.11;1838078;77;20245;-74
2021/04/28 08:57:25;;;;;;;;;;;;;;;10.15;81.74;101738.21;1843252;77;20259;-75
2021/04/28 08:59:54;;;;;;;;;;;;;;;10.21;80.93;101734.03;1826792;78;20478;-75
2021/04/28 09:02:26;;;;;;;;;;;;;;;10.22;80.07;101738.28;1826488;78;20227;-77
2021/04/28 09:05:11;;;;;;;;;;;;;;;10.18;79.74;101740.66;1843485;77;21181;-75
2021/04/28 09:07:43;;;;;;;;;;;;;;;10.07;79.69;101737.23;1834436;77;20717;-76
2021/04/28 09:10:15;;;;;;;;;;;;;;;10.04;80.23;101734.78;1811531;79;20150;-75
2021/04/28 09:12:56;;;;;;;;;;;;;;;10.07;80.09;101733.34;1808551;79;20137;-77
2021/04/28 09:15:45;;;;;;;;;;;;;;;10.02;79.96;101728.35;1807906;78;20470;-75
2021/04/28 09:18:19;;;;;;;;;;;;;;;9.99;80.18;101725.91;1808466;78;21188;-75
2021/04/28 09:21:05;;;;;;;;;;;;;;;10.00;81.01;101719.81;1808366;78;20112;-77
2021/04/28 09:23:52;;;;;;;;;;;;;;;10.13;80.90;101718.78;1808226;78;20244;-77
2021/04/28 09:26:39;;;;;;;;;;;;;;;10.39;80.58;101713.22;1808638;79;20161;-76
2021/04/28 09:29:19;;;;;;;;;;;;;;;10.69;79.84;101722.54;1812543;78;20220;-74
2021/04/28 09:32:02;;;;;;;;;;;;;;;10.95;78.54;101718.19;1819502;78;22111;-76
2021/04/28 09:34:39;;;;;;;;;;;;;;;11.11;77.31;101711.30;1812655;78;20184;-77
2021/04/28 09:37:17;;;;;;;;;;;;;;;11.30;77.09;101715.07;1808335;78;20283;-76
2021/04/28 09:39:48;;;;;;;;;;;;;;;11.54;75.97;101722.89;1807816;79;20248;-78
2021/04/28 09:42:17;;;;;;;;;;;;;;;11.89;74.60;101721.03;1814208;78;20168;-75
2021/04/28 09:44:48;;;;;;;;;;;;;;;12.01;73.21;101722.95;1824647;78;21184;-76
2021/04/28 09:47:19;;;;;;;;;;;;;;;11.99;72.50;101711.80;1824420;78;20183;-75
2021/04/28 09:50:02;;;;;;;;;;;;;;;12.12;72.40;101701.55;1824501;78;20232;-76
2021/04/28 09:52:33;;;;;;;;;;;;;;;12.29;72.23;101697.98;1824618;78;20579;-77
2021/04/28 09:55:12;;;;;;;;;;;;;;;12.36;70.39;101707.97;1824537;78;20136;-78
2021/04/28 09:57:43;;;;;;;;;;;;;;;12.30;69.31;101711.37;1824080;78;22132;-77
2021/04/28 10:00:21;;;;;;;;;;;;;;;12.26;68.88;101722.88;1840149;77;20740;-77
2021/04/28 10:02:55;;;;;;;;;;;;;;;12.14;68.85;101720.05;1843438;77;20134;-77
2021/04/28 10:05:43;;;;;;;;;;;;;;;12.06;68.44;101719.62;1832845;77;20600;-78
2021/04/28 10:08:26;;;;;;;;;;;;;;;12.07;68.53;101717.86;1821441;77;20201;-75
2021/04/28 10:10:50;;;;;;;;;;;;;;;12.26;68.56;101721.58;1814104;78;21197;-77
2021/04/28 10:13:18;;;;;;;;;;;;;;;12.29;67.69;101721.40;1816817;78;20219;-77
2021/04/28 10:15:49;;;;;;;;;;;;;;;12.20;67.74;101718.86;1815620;78;20219;-74
2021/04/28 10:18:19;;;;;;;;;;;;;;;12.18;66.53;101712.45;1815870;78;20271;-76
2021/04/28 10:20:48;;;;;;;;;;;;;;;12.24;65.62;101707.82;1816424;78;20212;-76
2021/04/28 10:23:18;;;;;;;;;;;;;;;12.37;65.99;101708.81;1812621;78;22291;-77
2021/04/28 10:25:54;;;;;;;;;;;;;;;12.51;64.47;101702.34;1810150;78;20251;-77
2021/04/28 10:28:25;;;;;;;;;;;;;;;12.62;64.49;101703.41;1828333;78;20116;-78
2021/04/28 10:30:56;;;;;;;;;;;;;;;12.47;64.29;101703.00;1837434;78;20193;-74
2021/04/28 10:33:26;;;;;;;;;;;;;;;12.42;64.76;101702.87;1850504;76;20213;-77
2021/04/28 10:35:56;;;;;;;;;;;;;;;12.47;65.76;101703.46;1814160;78;21266;-76
2021/04/28 10:38:26;;;;;;;;;;;;;;;12.53;66.26;101701.34;1821466;78;20168;-81
2021/04/28 10:40:54;;;;;;;;;;;;;;;12.59;65.19;101710.10;1817358;78;20148;-79
2021/04/28 10:43:37;;;;;;;;;;;;;;;12.65;64.61;101700.63;1820887;78;20132;-76
2021/04/28 10:46:18;;;;;;;;;;;;;;;12.64;63.81;101702.84;1824563;78;20215;-77
2021/04/28 10:48:47;;;;;;;;;;;;;;;12.58;63.14;101714.08;1820712;78;21336;-79
2021/04/28 10:51:38;;;;;;;;;;;;;;;12.50;63.74;101713.70;1818328;78;20220;-77
2021/04/28 10:54:25;;;;;;;;;;;;;;;12.47;63.94;101716.48;1811319;78;20295;-76
2021/04/28 10:57:02;;;;;;;;;;;;;;;12.65;64.17;101708.91;1807958;79;20567;-78
2021/04/28 10:59:37;;;;;;;;;;;;;;;12.79;63.54;101712.02;1808215;79;20243;-77
2021/04/28 11:02:09;;;;;;;;;;;;;;;12.90;62.69;101717.42;1812734;78;21188;-77
2021/04/28 11:04:38;;;;;;;;;;;;;;;12.88;61.80;101708.86;1816193;79;20505;-76
2021/04/28 11:07:07;;;;;;;;;;;;;;;12.81;62.55;101707.54;1808925;78;20140;-77
2021/04/28 11:09:37;;;;;;;;;;;;;;;12.86;61.53;101708.13;1815765;79;20234;-77
2021/04/28 11:12:05;;;;;;;;;;;;;;;12.92;60.65;101698.64;1824225;78;20220;-81
2021/04/28 11:14:33;;;;;;;;;;;;;;;12.88;60.81;101698.45;1811665;78;22122;-76
2021/04/28 11:17:23;;;;;;;;;;;;;;;12.95;60.27;101698.46;1821300;78;20268;-76
2021/04/28 11:19:52;;;;;;;;;;;;;;;13.17;60.82;101693.67;1814304;78;20219;-76
2021/04/28 11:22:24;;;;;;;;;;;;;;;13.66;60.65;101684.95;1818562;78;20219;-79
2021/04/28 11:25:02;;;;;;;;;;;;;;;14.30;59.24;101686.91;1812116;78;20168;-78
2021/04/28 11:27:57;;;;;;;;;;;;;;;14.66;56.17;101674.54;1824092;78;20518;-76
2021/04/28 11:30:34;;;;;;;;;;;;;;;14.94;54.93;101679.57;1828433;78;20708;-77
2021/04/28 11:33:25;;;;;;;;;;;;;;;15.09;54.29;101683.74;1827850;78;20196;-77
2021/04/28 11:35:59;;;;;;;;;;;;;;;15.07;53.95;101686.95;1834731;77;20123;-79
2021/04/28 11:38:31;;;;;;;;;;;;;;;15.32;53.77;101676.93;1806730;78;20223;-78
2021/04/28 11:41:06;;;;;;;;;;;;;;;15.51;52.99;101681.27;1859122;77;21190;-75
2021/04/28 11:43:41;;;;;;;;;;;;;;;15.44;53.40;101666.94;1844741;77;20232;-76
2021/04/28 11:46:14;;;;;;;;;;;;;;;15.61;52.07;101678.38;1818867;78;20267;-78
2021/04/28 11:48:52;;;;;;;;;;;;;;;15.77;51.57;101668.48;1827891;78;20149;-77
2021/04/28 11:51:27;;;;;;;;;;;;;;;15.94;50.97;101664.66;1828441;78;20219;-75
2021/04/28 11:54:05;;;;;;;;;;;;;;;16.19;50.95;101649.30;1827918;78;21175;-78
2021/04/28 11:56:43;;;;;;;;;;;;;;;16.30;50.60;101653.28;1820526;78;20580;-77
2021/04/28 11:59:27;;;;;;;;;;;;;;;16.27;50.76;101642.53;1812592;78;20358;-77
2021/04/28 12:02:01;;;;;;;;;;;;;;;16.04;51.03;101642.11;1812651;78;20275;-77
2021/04/28 12:04:31;;;;;;;;;;;;;;;15.78;50.15;101634.00;1817906;78;20494;-74
2021/04/28 12:06:59;;;;;;;;;;;;;;;15.81;51.08;101635.92;1819468;78;22119;-78
2021/04/28 12:09:41;;;;;;;;;;;;;;;15.79;51.04;101634.37;1827708;78;20171;-76
2021/04/28 12:12:26;;;;;;;;;;;;;;;15.70;51.02;101637.16;1827975;78;20181;-76
2021/04/28 12:15:10;;;;;;;;;;;;;;;15.72;51.46;101632.66;1828039;78;20243;-78
2021/04/28 12:17:40;;;;;;;;;;;;;;;15.75;50.70;101623.75;1825106;78;20251;-76
2021/04/28 12:20:13;;;;;;;;;;;;;;;15.48;50.93;101630.94;1811715;78;22219;-76
2021/04/28 12:22:43;;;;;;;;;;;;;;;15.41;50.83;101620.08;1821022;78;20231;-77
2021/04/28 12:25:19;;;;;;;;;;;;;;;15.47;51.75;101627.95;1824777;78;20275;-76
2021/04/28 12:27:49;;;;;;;;;;;;;;;15.38;52.00;101628.11;1829611;78;20247;-78
2021/04/28 12:30:24;;;;;;;;;;;;;;;15.44;51.72;101621.63;1830102;78;20267;-79
2021/04/28 12:32:54;;;;;;;;;;;;;;;15.26;51.40;101621.14;1829763;78;21815;-78
2021/04/28 12:35:24;;;;;;;;;;;;;;;14.90;52.68;101621.91;1829377;78;37526;-77
2021/04/28 12:38:09;;;;;;;;;;;;;;;14.70;52.59;101614.15;1829465;78;20600;-81
2021/04/28 12:40:41;;;;;;;;;;;;;;;14.74;52.70;101609.55;1828950;78;20256;-76
2021/04/28 12:43:14;;;;;;;;;;;;;;;15.03;52.23;101604.44;1823699;78;20502;-78
2021/04/28 12:45:44;;;;;;;;;;;;;;;15.26;51.36;101611.52;1804820;79;21125;-78
2021/04/28 12:48:14;;;;;;;;;;;;;;;15.35;50.82;101605.63;1796378;80;20350;-78
2021/04/28 12:50:43;;;;;;;;;;;;;;;15.20;51.10;101605.41;1796933;80;20249;-76
2021/04/28 12:53:14;;;;;;;;;;;;;;;14.98;51.89;101607.02;1797324;79;20268;-76
2021/04/28 12:55:43;;;;;;;;;;;;;;;14.90;52.65;101598.88;1796821;79;20234;-76
2021/04/28 12:58:13;;;;;;;;;;;;;;;15.05;53.11;101588.66;1796812;79;21200;-77
2021/04/28 13:00:47;;;;;;;;;;;;;;;15.38;51.81;101594.95;1797225;79;20225;-77
2021/04/28 13:03:17;;;;;;;;;;;;;;;15.44;51.26;101591.55;1803267;78;20204;-75
2021/04/28 13:06:00;;;;;;;;;;;;;;;15.46;51.20;101596.19;1814493;78;20141;-77